Simi, Greece
Current Conditions -  °F | °C
As of 7:20 AM on Friday 31 Oct 2014 (Local Time) from LGRP Reporting Station
Few Clouds Few Clouds  
Wind Chill: 64°   Ceiling: Unl
Heat Index: 64°   Visibility: 6mi
Dew Point: 55°   Wind: 12mph
Humidity: 73%   Direction: 290°WNW
Pressure: 29.91"   Gusts: NA
Location:  36.61°N, 27.84°E
Report Text: LGRP 310520Z 29010KT 9999 FEW018 18/13 Q1013 NOSIG
Loading
Personal Weather Stations






























Interactive Weather Map
Tropical Storm Tracking
New forecast layout! Learn more

10-Day Weather Forecast

Advertisements
Track Severe Weather on mobile